Moju, Brazil
Current Conditions -  °F | °C
As of 12:00 AM on Friday 21 Nov 2014 (Local Time) from SBBE Reporting Station
Clear Clear  
Wind Chill: 77°   Ceiling: Unl
Heat Index: 78°   Visibility: 6mi
Dew Point: 73°   Wind: 6mph
Humidity: 89%   Direction: 100°E
Pressure: 29.85"   Gusts: NA
Location:  1.88°S, 48.77°W
Report Text: SBBE 210300Z 10005KT CAVOK 25/23 Q1011
Loading
Personal Weather Stations






























Interactive Weather Map New forecast layout! Learn more

10-Day Weather Forecast

Advertisements
Track Severe Weather on mobile